Time;durP1;ratioP1;P1;durP2;ratioP2;P2;SDS_P1;SDS_P2;PMS_P1;PMS_P2;Temp;Humidity;BMP_temperature;BMP_pressure;BME280_temperature;BME280_humidity;BME280_pressure;Samples;Min_cycle;Max_cycle;Signal;HPM_P1;HPM_P2
2022/06/21 00:00:25;;;;;;;10.15;6.22;;;;;;;13.11;77.67;99871.22;2108438;84;32948;-66
2022/06/21 00:03:30;;;;;;;7.12;5.58;;;;;;;13.10;77.43;99866.80;2108512;84;27698;-65
2022/06/21 00:06:33;;;;;;;8.58;5.78;;;;;;;13.06;77.17;99870.19;2108535;84;27721;-66
2022/06/21 00:09:35;;;;;;;6.33;5.22;;;;;;;13.03;77.15;99869.89;2108131;83;29583;-67
2022/06/21 00:12:37;;;;;;;6.80;5.28;;;;;;;12.99;77.00;99872.89;2108657;84;31005;-66
2022/06/21 00:15:40;;;;;;;6.33;5.17;;;;;;;12.94;77.05;99870.98;2108410;84;32474;-65
2022/06/21 00:18:44;;;;;;;5.97;5.30;;;;;;;12.90;77.15;99868.98;2110712;83;29220;-66
2022/06/21 00:21:47;;;;;;;7.42;5.08;;;;;;;12.86;76.97;99865.66;2108770;84;27728;-66
2022/06/21 00:24:51;;;;;;;8.55;5.87;;;;;;;12.83;76.99;99862.28;2108445;84;28684;-66
2022/06/21 00:27:56;;;;;;;6.30;5.42;;;;;;;12.79;77.12;99862.98;2108409;84;32141;-65
2022/06/21 00:30:58;;;;;;;6.05;5.45;;;;;;;12.78;77.25;99856.37;2108425;84;33732;-65
2022/06/21 00:34:15;;;;;;;5.08;4.47;;;;;;;12.76;77.26;99853.30;2108415;84;30273;-66
2022/06/21 00:37:21;;;;;;;6.58;5.00;;;;;;;12.73;77.22;99853.50;2108548;84;27795;-66
2022/06/21 00:40:31;;;;;;;7.97;4.95;;;;;;;12.71;77.26;99851.88;2108617;84;29339;-65
2022/06/21 00:43:37;;;;;;;6.85;5.10;;;;;;;12.69;77.21;99850.63;2108776;84;31783;-65
2022/06/21 00:46:50;;;;;;;5.67;4.65;;;;;;;12.69;77.34;99849.28;2108554;82;32992;-66
2022/06/21 00:50:03;;;;;;;7.58;5.05;;;;;;;12.68;77.27;99852.93;2101513;83;29452;-66
2022/06/21 00:53:19;;;;;;;6.75;5.67;;;;;;;12.65;77.24;99857.19;2123927;83;27728;-66
2022/06/21 00:56:29;;;;;;;9.75;5.85;;;;;;;12.60;77.05;99857.47;2126456;83;28713;-67
2022/06/21 00:59:34;;;;;;;7.05;6.08;;;;;;;12.55;77.00;99847.98;2068226;86;31023;-66
2022/06/21 01:02:36;;;;;;;6.45;5.67;;;;;;;12.48;76.96;99847.52;2068322;86;32988;-67
2022/06/21 01:05:40;;;;;;;10.30;6.65;;;;;;;12.40;76.87;99853.89;2125888;83;30165;-67
2022/06/21 01:08:45;;;;;;;7.83;5.85;;;;;;;12.30;76.77;99844.22;2068480;86;27537;-66
2022/06/21 01:11:52;;;;;;;8.20;5.47;;;;;;;12.23;76.86;99841.53;2068252;86;28737;-66
2022/06/21 01:14:59;;;;;;;8.75;5.40;;;;;;;12.16;76.94;99847.78;2126279;83;31043;-66
2022/06/21 01:18:05;;;;;;;6.03;5.42;;;;;;;12.09;76.85;99847.30;2043359;86;33142;-67
2022/06/21 01:21:07;;;;;;;11.05;5.33;;;;;;;12.04;76.93;99847.22;2090419;85;30166;-66
2022/06/21 01:24:27;;;;;;;9.08;4.72;;;;;;;11.96;76.94;99851.20;2034650;87;27791;-67
2022/06/21 01:27:28;;;;;;;7.85;4.72;;;;;;;11.91;77.05;99845.28;2090673;85;28769;-66
2022/06/21 01:30:31;;;;;;;13.83;6.17;;;;;;;11.86;77.14;99844.20;2036427;86;31735;-66
2022/06/21 01:33:37;;;;;;;8.20;5.22;;;;;;;11.79;77.00;99848.24;2034660;87;32964;-66
2022/06/21 01:36:39;;;;;;;8.25;6.42;;;;;;;11.76;77.13;99846.20;2090326;85;29604;-66
2022/06/21 01:39:58;;;;;;;11.88;7.12;;;;;;;11.71;77.12;99849.19;2034647;87;27719;-66
2022/06/21 01:43:07;;;;;;;9.60;6.85;;;;;;;11.67;77.30;99846.30;2021640;88;29462;-67
2022/06/21 01:46:13;;;;;;;16.40;7.92;;;;;;;11.64;77.34;99850.53;2021663;88;31035;-66
2022/06/21 01:49:19;;;;;;;8.28;7.47;;;;;;;11.60;77.39;99859.23;2020619;85;32437;-65
2022/06/21 01:52:26;;;;;;;8.60;7.17;;;;;;;11.57;77.56;99858.56;2034913;87;29411;-65
2022/06/21 01:55:41;;;;;;;9.18;7.00;;;;;;;11.54;77.51;99856.45;2035260;87;27722;-66
2022/06/21 01:58:48;;;;;;;8.08;7.25;;;;;;;11.52;77.55;99861.04;2036379;85;28680;-66
2022/06/21 02:02:06;;;;;;;12.25;6.97;;;;;;;11.49;77.50;99862.59;2041465;85;31118;-65
2022/06/21 02:05:22;;;;;;;8.15;7.35;;;;;;;11.45;77.53;99869.55;2040616;87;33051;-66
2022/06/21 02:08:27;;;;;;;8.38;7.08;;;;;;;11.42;77.56;99861.22;2041607;87;30204;-66
2022/06/21 02:11:43;;;;;;;7.25;6.45;;;;;;;11.38;77.64;99869.06;2041429;87;27781;-66
2022/06/21 02:14:49;;;;;;;13.80;7.08;;;;;;;11.33;77.61;99861.79;2041362;87;28655;-66
2022/06/21 02:17:51;;;;;;;8.43;7.10;;;;;;;11.30;77.71;99870.02;2041493;87;31855;-66
2022/06/21 02:21:21;;;;;;;8.30;6.10;;;;;;;11.27;77.76;99868.84;2110376;84;33042;-66
2022/06/21 02:24:25;;;;;;;11.88;6.12;;;;;;;11.25;77.85;99861.76;2115110;84;30041;-65
2022/06/21 02:27:32;;;;;;;8.55;6.30;;;;;;;11.23;77.85;99867.69;2114834;84;27673;-65
2022/06/21 02:30:36;;;;;;;11.45;6.58;;;;;;;11.22;77.97;99873.15;2136249;82;28727;-66
2022/06/21 02:33:37;;;;;;;7.80;5.97;;;;;;;11.20;78.00;99869.20;2124582;82;31831;-66
2022/06/21 02:36:50;;;;;;;7.12;6.30;;;;;;;11.19;77.99;99874.17;2150763;82;32948;-66
2022/06/21 02:39:51;;;;;;;12.15;6.65;;;;;;;11.20;78.09;99875.06;2151010;82;29329;-66
2022/06/21 02:42:57;;;;;;;7.45;6.50;;;;;;;11.20;78.17;99872.37;2150910;82;27735;-66
2022/06/21 02:46:10;;;;;;;11.22;7.42;;;;;;;11.20;78.09;99871.03;2150942;82;28656;-66
2022/06/21 02:49:29;;;;;;;10.60;6.80;;;;;;;11.19;78.15;99871.49;2148310;79;31106;-66
2022/06/21 02:52:39;;;;;;;12.30;7.70;;;;;;;11.20;78.25;99866.52;2147407;82;32989;-65
2022/06/21 02:56:01;;;;;;;8.10;7.33;;;;;;;11.21;78.24;99868.73;2121246;82;30020;-65
2022/06/21 02:59:03;;;;;;;9.75;7.65;;;;;;;11.22;78.26;99869.13;2138809;82;27719;-66
2022/06/21 03:02:15;;;;;;;10.60;6.95;;;;;;;11.24;78.29;99867.22;2085693;84;28716;-66
2022/06/21 03:05:20;;;;;;;10.58;7.45;;;;;;;11.25;78.33;99864.93;2111931;84;31071;-66
2022/06/21 03:08:23;;;;;;;9.45;6.75;;;;;;;11.28;78.39;99869.23;2111988;84;34052;-66
2022/06/21 03:11:28;;;;;;;8.88;6.10;;;;;;;11.29;78.35;99866.94;2111916;84;29394;-66
2022/06/21 03:14:33;;;;;;;7.85;6.78;;;;;;;11.32;78.42;99859.56;2112134;84;27680;-65
2022/06/21 03:17:54;;;;;;;13.60;6.37;;;;;;;11.36;78.37;99865.60;2112203;84;33778;-65
2022/06/21 03:20:56;;;;;;;11.75;5.50;;;;;;;11.42;78.37;99868.42;2112062;84;31024;-65
2022/06/21 03:24:01;;;;;;;8.23;5.20;;;;;;;11.45;78.36;99865.53;2112549;84;32460;-65
2022/06/21 03:27:14;;;;;;;9.88;4.83;;;;;;;11.50;78.32;99867.46;2112032;84;29494;-65
2022/06/21 03:30:19;;;;;;;6.53;4.58;;;;;;;11.57;78.37;99867.48;2135413;82;28136;-66
2022/06/21 03:33:20;;;;;;;7.17;4.33;;;;;;;11.65;78.23;99876.41;2148377;82;28667;-65
2022/06/21 03:36:25;;;;;;;5.45;4.00;;;;;;;11.70;78.12;99879.66;2148291;82;31623;-66
2022/06/21 03:42:52;;;;;;;6.12;3.90;;;;;;;11.80;78.00;99870.56;2148034;82;29387;-65
2022/06/21 03:45:56;;;;;;;5.80;3.87;;;;;;;11.92;77.99;99866.27;2148414;82;27632;-65
2022/06/21 03:49:05;;;;;;;5.80;4.25;;;;;;;12.07;77.94;99873.38;2149908;80;29571;-66
2022/06/21 03:52:12;;;;;;;6.03;4.03;;;;;;;12.20;77.86;99869.45;2151272;81;31044;-66
2022/06/21 03:55:37;;;;;;;8.35;3.90;;;;;;;12.35;77.69;99876.99;2151300;82;33041;-66
2022/06/21 03:59:16;;;;;;;9.18;4.05;;;;;;;12.51;77.58;99878.70;2143574;82;29314;-66
2022/06/21 04:02:48;;;;;;;4.35;3.67;;;;;;;12.66;77.12;99878.19;2115416;82;27632;-66
2022/06/21 04:06:17;;;;;;;6.17;4.28;;;;;;;12.76;77.02;99881.98;2114863;84;29475;-65
2022/06/21 04:09:26;;;;;;;6.28;3.72;;;;;;;12.85;76.65;99888.13;2114891;84;31812;-66
2022/06/21 04:12:45;;;;;;;6.15;4.92;;;;;;;12.88;76.28;99881.20;2114849;84;33154;-66
2022/06/21 04:15:54;;;;;;;13.35;4.30;;;;;;;13.01;76.44;99896.52;2115058;84;30119;-67
2022/06/21 04:19:03;;;;;;;5.92;3.22;;;;;;;13.15;76.13;99896.45;2115212;84;28303;-67
2022/06/21 04:22:40;;;;;;;10.65;3.92;;;;;;;13.30;76.14;99894.57;2114970;84;28708;-66
2022/06/21 04:26:17;;;;;;;5.35;3.10;;;;;;;13.39;75.96;99899.81;2113562;84;31059;-67
2022/06/21 04:29:24;;;;;;;7.08;3.50;;;;;;;13.50;75.67;99902.66;2069371;84;33060;-67
2022/06/21 04:32:30;;;;;;;4.67;3.08;;;;;;;13.55;75.40;99901.48;2065980;83;29343;-67
2022/06/21 04:35:42;;;;;;;3.75;3.17;;;;;;;13.63;75.18;99904.03;2065868;86;27667;-67
2022/06/21 04:38:49;;;;;;;4.20;3.08;;;;;;;13.79;74.77;99904.31;2063052;86;28676;-67
2022/06/21 04:42:05;;;;;;;5.05;3.00;;;;;;;14.05;75.05;99898.91;2064673;86;31098;-67
2022/06/21 04:45:29;;;;;;;7.90;2.80;;;;;;;14.26;74.19;99893.81;2061704;86;33031;-67
2022/06/21 04:49:00;;;;;;;8.30;2.58;;;;;;;15.31;74.12;99896.94;2019151;88;29352;-66
2022/06/21 04:52:07;;;;;;;5.03;2.30;;;;;;;16.04;73.33;99873.80;2019073;88;27774;-66
2022/06/21 04:55:15;;;;;;;8.53;2.77;;;;;;;16.04;73.33;99873.80;2019313;88;28692;-66
2022/06/21 04:58:16;;;;;;;9.10;2.77;;;;;;;17.02;72.42;99893.00;2025861;86;31029;-65
2022/06/21 05:01:32;;;;;;;4.33;2.05;;;;;;;17.59;71.72;99911.70;2058351;86;32734;-65
2022/06/21 05:04:37;;;;;;;5.60;2.30;;;;;;;18.55;71.31;99905.25;2107918;84;29345;-66
2022/06/21 05:07:42;;;;;;;;;;;;;;;19.12;68.91;99904.19;2111447;84;27685;-66
2022/06/21 05:10:48;;;;;;;3.58;2.17;;;;;;;19.74;67.57;99895.72;2108705;84;28631;-66
2022/06/21 05:13:53;;;;;;;6.20;2.80;;;;;;;19.77;66.39;99892.71;2107988;84;31015;-66
2022/06/21 05:16:55;;;;;;;3.33;1.70;;;;;;;19.88;66.85;99884.41;2108735;84;33753;-66
2022/06/21 05:20:00;;;;;;;4.53;1.60;;;;;;;20.78;66.36;99888.49;2108448;84;30270;-66
2022/06/21 05:23:05;;;;;;;3.37;1.90;;;;;;;21.94;65.01;99879.51;2109503;83;27664;-66
2022/06/21 05:26:20;;;;;;;3.37;2.05;;;;;;;23.02;62.86;99875.37;2108643;83;28634;-66
2022/06/21 05:29:53;;;;;;;3.42;1.82;;;;;;;23.83;61.23;99876.93;2108671;83;30759;-66
2022/06/21 05:32:58;;;;;;;3.33;2.15;;;;;;;24.81;60.43;99874.62;2108877;84;33596;-66
2022/06/21 05:36:07;;;;;;;4.15;1.82;;;;;;;25.71;59.14;99882.72;2109014;84;30050;-66
2022/06/21 05:39:22;;;;;;;4.65;1.72;;;;;;;26.51;57.89;99874.81;2108721;84;27617;-67
2022/06/21 05:42:24;;;;;;;4.85;1.57;;;;;;;26.73;55.99;99885.88;2108668;84;28829;-66
2022/06/21 05:45:31;;;;;;;3.52;1.90;;;;;;;26.46;54.27;99887.42;2108605;84;31673;-66
2022/06/21 05:52:53;;;;;;;3.22;1.60;;;;;;;25.90;53.62;99892.80;2102328;83;29406;-66
2022/06/21 05:56:03;;;;;;;2.30;1.65;;;;;;;25.43;51.84;99897.52;2126068;83;27708;-66
2022/06/21 05:59:25;;;;;;;3.17;1.50;;;;;;;24.80;52.28;99905.78;2125761;83;27557;-66
2022/06/21 06:02:49;;;;;;;6.40;1.82;;;;;;;24.61;51.46;99906.52;2125284;83;27886;-66
2022/06/21 06:06:04;;;;;;;2.35;1.42;;;;;;;24.87;51.52;99899.91;2126003;83;32956;-67
2022/06/21 06:09:19;;;;;;;2.20;1.70;;;;;;;24.52;50.57;99906.20;2126260;83;29399;-66
2022/06/21 06:12:30;;;;;;;2.87;1.42;;;;;;;24.18;50.38;99904.59;2126571;83;27649;-66
2022/06/21 06:15:48;;;;;;;2.62;1.52;;;;;;;23.66;50.17;99908.92;2125908;83;28707;-66
2022/06/21 06:19:01;;;;;;;3.08;1.60;;;;;;;23.19;50.00;99909.55;2125869;83;31757;-67
2022/06/21 06:22:30;;;;;;;4.03;1.45;;;;;;;23.06;50.10;99902.70;2123769;83;32974;-65
2022/06/21 06:25:50;;;;;;;3.83;1.40;;;;;;;23.47;49.37;99901.06;2084485;85;29321;-65
2022/06/21 06:29:29;;;;;;;2.87;1.62;;;;;;;23.55;49.05;99905.67;2090007;85;27676;-66
2022/06/21 06:32:41;;;;;;;2.55;1.10;;;;;;;23.38;48.84;99911.13;2090051;85;28662;-67
2022/06/21 06:35:44;;;;;;;4.47;1.30;;;;;;;22.79;48.44;99924.31;2089963;85;31071;-66
2022/06/21 06:38:47;;;;;;;3.62;1.40;;;;;;;22.38;48.85;99917.25;2090185;85;33194;-66
2022/06/21 06:42:12;;;;;;;5.35;1.50;;;;;;;21.93;48.76;99924.16;2090280;85;29372;-66
2022/06/21 06:45:19;;;;;;;3.92;1.95;;;;;;;21.47;48.87;99917.97;2090212;85;27728;-66
2022/06/21 06:48:26;;;;;;;5.67;1.62;;;;;;;20.99;49.48;99929.57;2095214;83;28665;-66
2022/06/21 06:52:00;;;;;;;1.98;1.20;;;;;;;20.73;49.94;99931.12;2135358;83;31193;-66
2022/06/21 06:55:17;;;;;;;3.27;1.52;;;;;;;20.52;50.31;99921.00;2074866;85;32988;-67
2022/06/21 06:58:24;;;;;;;3.55;1.40;;;;;;;20.19;50.46;99932.28;2052118;85;30214;-66
2022/06/21 07:01:57;;;;;;;6.72;1.52;;;;;;;19.97;50.71;99932.97;2098806;84;27683;-66
2022/06/21 07:05:27;;;;;;;3.52;2.00;;;;;;;19.80;50.91;99929.12;2117149;84;29605;-66
2022/06/21 07:09:09;;;;;;;6.58;2.33;;;;;;;19.59;51.20;99940.16;2115878;84;31973;-67
2022/06/21 07:12:27;;;;;;;4.50;2.00;;;;;;;19.45;51.52;99944.16;2117393;83;32956;-66
2022/06/21 07:15:36;;;;;;;3.10;1.67;;;;;;;19.22;51.78;99958.52;2117487;84;30122;-66
2022/06/21 07:18:52;;;;;;;4.53;2.02;;;;;;;18.95;51.80;99950.52;2117373;83;27689;-66
2022/06/21 07:21:53;;;;;;;;;;;;;;;18.83;52.13;99956.55;2118035;84;28661;-66
2022/06/21 07:25:27;;;;;;;4.60;2.37;;;;;;;18.61;52.07;99956.27;2010625;87;31147;-66
2022/06/21 07:28:55;;;;;;;5.65;2.25;;;;;;;18.42;52.38;99962.44;2074954;85;33033;-65
2022/06/21 07:32:11;;;;;;;4.35;1.85;;;;;;;18.27;52.89;99965.51;2075313;85;29273;-66
2022/06/21 07:35:26;;;;;;;6.47;1.80;;;;;;;18.27;52.95;99968.22;2074941;84;27691;-66
2022/06/21 07:38:54;;;;;;;2.40;2.02;;;;;;;18.31;53.18;99970.16;2108756;84;28640;-66
2022/06/21 07:42:02;;;;;;;5.65;1.77;;;;;;;18.34;53.28;99970.77;2108450;84;31745;-66
2022/06/21 07:45:15;;;;;;;6.33;1.72;;;;;;;18.18;52.90;99973.95;2114575;84;33614;-66
2022/06/21 07:48:42;;;;;;;3.62;2.00;;;;;;;18.05;53.43;99980.92;2115050;81;30122;-67
2022/06/21 07:51:51;;;;;;;4.33;2.15;;;;;;;18.00;53.46;99971.00;2091583;83;27711;-66
2022/06/21 07:54:59;;;;;;;4.00;2.00;;;;;;;18.27;53.98;99976.87;2126088;83;28668;-66
2022/06/21 07:58:06;;;;;;;3.30;2.02;;;;;;;19.13;54.68;99969.20;2125225;83;31194;-66
2022/06/21 08:08:29;;;;;;;4.50;1.55;;;;;;;21.37;52.55;99971.19;2055049;86;27814;-66
2022/06/21 08:11:39;;;;;;;2.20;1.80;;;;;;;22.28;51.17;99967.86;2017084;88;28673;-67
2022/06/21 08:14:55;;;;;;;3.50;1.70;;;;;;;22.89;50.01;99961.89;2054269;86;28034;-66
2022/06/21 08:18:10;;;;;;;3.10;1.40;;;;;;;23.54;49.33;99959.52;2017054;88;33010;-66
2022/06/21 08:21:19;;;;;;;5.15;1.40;;;;;;;24.09;48.43;99963.47;2054773;86;29350;-66
2022/06/21 08:24:44;;;;;;;1.67;1.40;;;;;;;24.33;47.46;99969.08;2016459;88;27891;-67
2022/06/21 08:28:07;;;;;;;5.97;2.08;;;;;;;24.49;46.58;99970.41;2055071;86;29473;-66
2022/06/21 08:31:16;;;;;;;4.08;1.57;;;;;;;24.32;46.43;99975.58;2070082;86;31711;-66
2022/06/21 08:34:46;;;;;;;5.47;1.30;;;;;;;24.15;46.08;99967.39;2055024;86;33785;-66
2022/06/21 08:38:14;;;;;;;7.28;1.62;;;;;;;24.46;45.63;99974.02;2054944;86;29339;-66
2022/06/21 08:49:08;;;;;;;2.83;1.27;;;;;;;25.24;43.59;99974.21;2090547;85;31906;-65
2022/06/21 08:52:54;;;;;;;3.12;1.50;;;;;;;25.50;43.09;99975.81;2106385;82;33738;-66
2022/06/21 08:56:21;;;;;;;3.50;1.40;;;;;;;25.53;42.59;99968.59;2085494;85;29337;-66
2022/06/21 09:00:13;;;;;;;2.70;1.20;;;;;;;25.46;41.99;99964.36;2085543;85;27689;-66
2022/06/21 09:03:46;;;;;;;4.72;2.20;;;;;;;25.42;42.55;99974.81;2085636;85;28746;-66
2022/06/21 09:07:16;;;;;;;1.55;1.10;;;;;;;25.79;41.86;99975.09;1978006;90;31267;-66
2022/06/21 09:10:49;;;;;;;2.27;1.45;;;;;;;25.90;40.02;99979.25;1978627;89;34030;-66
2022/06/21 09:14:11;;;;;;;2.42;1.10;;;;;;;25.78;40.77;99981.61;1916578;92;29316;-66
2022/06/21 09:17:47;;;;;;;14.25;1.67;;;;;;;25.90;40.18;99991.10;1916747;92;27860;-66
2022/06/21 09:21:30;;;;;;;2.30;1.27;;;;;;;25.83;39.69;99989.28;1942271;91;28686;-66
2022/06/21 09:24:58;;;;;;;5.97;1.25;;;;;;;25.13;39.54;99983.72;1901094;93;31661;-66
2022/06/21 09:28:20;;;;;;;2.20;1.10;;;;;;;25.05;40.05;99972.78;1901061;93;34171;-66
2022/06/21 09:31:47;;;;;;;5.85;1.47;;;;;;;25.05;39.89;99980.51;1898113;93;29423;-66
2022/06/21 09:34:54;;;;;;;2.67;1.45;;;;;;;24.99;39.59;99976.56;1900743;93;27780;-66
2022/06/21 09:38:34;;;;;;;2.25;1.40;;;;;;;24.79;39.31;99966.56;1901238;93;28748;-66
2022/06/21 09:41:59;;;;;;;1.72;1.07;;;;;;;24.64;39.88;99979.26;1901033;93;31064;-65
2022/06/21 09:45:22;;;;;;;2.50;1.02;;;;;;;24.49;39.68;99990.10;1963714;89;33061;-66
2022/06/21 09:48:53;;;;;;;5.20;1.25;;;;;;;24.59;39.28;99986.64;1978841;89;29342;-66
2022/06/21 09:52:18;;;;;;;9.60;1.47;;;;;;;24.59;39.39;99992.12;2042250;85;27801;-66
2022/06/21 09:55:57;;;;;;;2.25;1.40;;;;;;;24.47;39.34;99984.78;2043483;87;28729;-66
2022/06/21 09:59:19;;;;;;;2.33;1.00;;;;;;;24.18;39.48;99989.45;2043419;87;31031;-66
2022/06/21 10:02:35;;;;;;;5.87;1.32;;;;;;;23.80;39.50;99989.95;2112333;84;32951;-65
2022/06/21 10:06:06;;;;;;;2.27;1.50;;;;;;;23.30;39.38;99993.98;2112365;84;29324;-65
2022/06/21 10:09:38;;;;;;;1.17;1.07;;;;;;;22.81;40.03;99986.45;2090844;84;27810;-65
2022/06/21 10:13:20;;;;;;;3.65;1.50;;;;;;;22.54;40.85;99997.06;2091111;85;28644;-66
2022/06/21 10:16:43;;;;;;;3.98;1.52;;;;;;;22.61;41.56;99992.65;2060584;86;30467;-65
2022/06/21 10:20:13;;;;;;;2.75;1.50;;;;;;;22.80;41.66;99986.59;2060476;86;32953;-65
2022/06/21 10:23:23;;;;;;;2.98;1.30;;;;;;;22.98;41.58;99989.25;2091313;83;30033;-66
2022/06/21 10:27:01;;;;;;;4.35;1.12;;;;;;;22.87;41.00;99994.50;2095277;84;27698;-65
2022/06/21 10:30:58;;;;;;;2.77;1.07;;;;;;;22.57;40.76;99994.02;2094917;85;28655;-66
2022/06/21 10:35:04;;;;;;;3.47;1.02;;;;;;;22.33;41.63;99995.53;2095006;85;31829;-68
2022/06/21 10:38:55;;;;;;;2.02;1.42;;;;;;;22.37;41.89;99991.47;2094912;85;34091;-65
2022/06/21 10:42:48;;;;;;;4.03;1.40;;;;;;;22.42;41.04;99981.46;2094983;85;29233;-66
2022/06/21 10:46:16;;;;;;;3.22;1.30;;;;;;;22.27;41.14;99992.94;2108479;83;27863;-66
2022/06/21 10:49:41;;;;;;;1.47;1.02;;;;;;;22.17;40.77;99994.92;2124571;83;28661;-67
2022/06/21 10:53:00;;;;;;;5.35;1.12;;;;;;;22.12;40.68;100007.66;2137571;82;31074;-67
2022/06/21 11:03:41;;;;;;;4.00;1.43;;;;;;;22.06;41.00;100010.17;2148737;82;27648;-66
2022/06/21 11:07:10;;;;;;;2.27;1.20;;;;;;;21.90;40.44;100015.00;2148588;82;28638;-66
2022/06/21 11:10:23;;;;;;;3.50;1.52;;;;;;;21.68;40.59;100016.66;2148835;82;31188;-67
2022/06/21 11:13:30;;;;;;;1.77;0.98;;;;;;;21.70;41.21;100009.18;2148647;82;33020;-66
2022/06/21 11:17:11;;;;;;;3.87;1.30;;;;;;;21.88;41.61;100004.22;2148185;82;29384;-66
2022/06/21 11:20:41;;;;;;;2.95;1.40;;;;;;;22.10;41.27;100014.30;2148721;82;27722;-67
2022/06/21 11:23:58;;;;;;;2.75;1.17;;;;;;;22.18;41.53;100014.87;2148538;82;28616;-66
2022/06/21 11:27:14;;;;;;;1.52;1.00;;;;;;;22.31;41.72;100016.66;2148486;82;31795;-66
2022/06/21 11:30:45;;;;;;;3.25;1.52;;;;;;;22.31;41.54;100005.26;2143064;82;33951;-67
2022/06/21 11:33:54;;;;;;;2.52;1.22;;;;;;;22.42;41.40;100009.59;2083040;85;29353;-67
2022/06/21 11:37:16;;;;;;;2.20;1.35;;;;;;;22.50;41.61;100011.55;2148609;82;27621;-66
2022/06/21 11:40:38;;;;;;;1.67;1.10;;;;;;;22.67;41.64;100004.30;2148446;82;28737;-66
2022/06/21 11:43:51;;;;;;;3.02;1.30;;;;;;;22.75;40.83;100014.41;2148523;82;31105;-66
2022/06/21 11:47:10;;;;;;;1.90;1.20;;;;;;;22.89;41.29;100007.48;2148619;82;32955;-67
2022/06/21 11:50:25;;;;;;;3.45;1.07;;;;;;;23.10;41.25;100008.91;2144516;81;29318;-66
2022/06/21 11:53:44;;;;;;;;;;;;;;;23.11;40.65;100006.52;2127771;83;27721;-66
2022/06/21 11:57:28;;;;;;;1.75;1.12;;;;;;;22.96;40.18;99999.48;2126055;83;28760;-66
2022/06/21 12:00:46;;;;;;;4.47;1.47;;;;;;;22.85;40.42;100005.56;2126244;83;31610;-66
2022/06/21 12:04:12;;;;;;;7.28;1.62;;;;;;;22.70;40.77;100010.80;2104893;84;33643;-66
2022/06/21 12:07:39;;;;;;;2.08;1.20;;;;;;;22.79;41.09;100013.56;2080037;85;29987;-67
2022/06/21 12:10:50;;;;;;;4.35;1.47;;;;;;;22.97;40.78;100010.76;2079785;85;27705;-66
2022/06/21 12:14:30;;;;;;;3.83;1.50;;;;;;;22.89;40.40;100019.25;2044791;87;28663;-66
2022/06/21 12:17:57;;;;;;;3.58;1.25;;;;;;;22.74;40.28;100017.66;2080162;85;31833;-67
2022/06/21 12:21:10;;;;;;;2.45;1.25;;;;;;;22.59;40.65;100017.89;2063300;86;33607;-65
2022/06/21 12:24:20;;;;;;;3.80;1.32;;;;;;;22.49;40.72;100001.65;2040089;86;31229;-67
2022/06/21 12:27:21;;;;;;;1.72;1.05;;;;;;;22.39;41.06;100010.41;2063212;86;27754;-66
2022/06/21 12:30:27;;;;;;;2.67;1.40;;;;;;;22.28;40.75;100011.52;2063300;86;28471;-67
2022/06/21 12:33:36;;;;;;;2.35;1.37;;;;;;;22.27;40.94;100012.05;2063011;86;31014;-72
2022/06/21 12:36:44;;;;;;;1.40;1.30;;;;;;;22.33;41.02;100020.62;2032743;85;33778;-69
2022/06/21 12:40:07;;;;;;;2.42;1.30;;;;;;;22.42;40.82;100010.13;2078099;85;29328;-67
2022/06/21 12:43:35;;;;;;;1.75;1.40;;;;;;;22.46;40.89;100003.33;2048217;86;27716;-67
2022/06/21 12:46:57;;;;;;;1.82;1.40;;;;;;;22.66;41.05;100003.95;2050866;86;29664;-66
2022/06/21 12:50:49;;;;;;;2.55;1.25;;;;;;;22.84;40.93;100007.11;2052417;84;31164;-67
2022/06/21 12:54:20;;;;;;;1.80;1.30;;;;;;;22.99;40.91;99997.27;2098330;84;33085;-67
2022/06/21 12:57:42;;;;;;;4.00;1.62;;;;;;;23.18;40.96;99998.86;2116073;81;29371;-65
2022/06/21 13:00:51;;;;;;;2.40;1.40;;;;;;;23.34;41.08;99994.49;2146431;82;27720;-67
2022/06/21 13:04:07;;;;;;;1.90;1.27;;;;;;;23.44;40.75;99991.12;2146343;82;29366;-65
2022/06/21 13:07:43;;;;;;;4.03;1.25;;;;;;;23.52;40.55;99990.27;2146508;82;31027;-64
2022/06/21 13:11:19;;;;;;;8.65;1.72;;;;;;;23.61;40.32;99996.61;2146390;82;33012;-66
2022/06/21 13:14:41;;;;;;;5.87;1.92;;;;;;;23.63;40.20;99995.94;2114856;84;29553;-64
2022/06/21 13:18:17;;;;;;;2.33;1.65;;;;;;;23.56;40.22;99984.82;2142844;82;27719;-65
2022/06/21 13:21:41;;;;;;;1.30;1.20;;;;;;;23.53;40.14;99991.98;2104206;84;28659;-66
2022/06/21 13:25:24;;;;;;;2.50;1.57;;;;;;;23.41;40.08;99988.72;2105181;84;31020;-65
2022/06/21 13:29:06;;;;;;;1.20;1.10;;;;;;;23.41;40.16;99984.61;2104483;84;33029;-65
2022/06/21 13:32:16;;;;;;;4.00;1.70;;;;;;;23.52;40.62;99973.88;2104319;84;28745;-66
2022/06/21 13:35:45;;;;;;;4.10;1.72;;;;;;;23.72;40.47;99964.81;2104203;84;27753;-67
2022/06/21 13:38:55;;;;;;;2.62;1.52;;;;;;;23.87;40.14;99961.39;2105302;83;28646;-64
2022/06/21 13:42:38;;;;;;;3.12;1.72;;;;;;;23.77;39.82;99965.17;2100181;83;31522;-66
2022/06/21 13:45:52;;;;;;;3.60;1.22;;;;;;;23.62;40.01;99963.61;2070741;84;32986;-65
2022/06/21 13:49:02;;;;;;;3.42;1.57;;;;;;;23.41;39.72;99961.38;2070918;84;30131;-67
2022/06/21 13:52:30;;;;;;;4.30;1.55;;;;;;;23.23;39.68;99967.48;2064747;84;28033;-67
2022/06/21 13:55:49;;;;;;;1.65;1.47;;;;;;;23.17;40.11;99962.98;2056222;85;28713;-66
2022/06/21 13:59:13;;;;;;;4.55;1.22;;;;;;;23.17;39.84;99964.36;2046939;85;31189;-71
2022/06/21 14:02:34;;;;;;;3.80;1.35;;;;;;;23.17;39.87;99958.05;1998508;87;33605;-67
2022/06/21 14:05:50;;;;;;;3.92;1.50;;;;;;;23.26;39.99;99948.02;1988056;87;29406;-65
2022/06/21 14:09:08;;;;;;;3.47;1.20;;;;;;;23.38;39.57;99947.20;2001529;88;27827;-70
2022/06/21 14:12:58;;;;;;;3.50;1.32;;;;;;;23.47;39.42;99947.04;2003006;88;28874;-72
2022/06/21 14:16:16;;;;;;;2.85;1.15;;;;;;;23.52;39.25;99936.95;2032326;85;32250;-68
2022/06/21 14:19:23;;;;;;;3.77;1.75;;;;;;;23.61;38.94;99950.97;2072008;84;34257;-68
2022/06/21 14:22:45;;;;;;;1.87;1.45;;;;;;;23.69;39.24;99948.74;2073129;84;29334;-67
2022/06/21 14:25:52;;;;;;;2.92;1.50;;;;;;;23.74;39.05;99942.25;2075529;85;27713;-68
2022/06/21 14:29:25;;;;;;;1.70;1.37;;;;;;;23.70;38.93;99937.31;2076420;85;29431;-69
2022/06/21 14:32:44;;;;;;;2.35;1.47;;;;;;;23.64;39.11;99941.06;2077413;84;31047;-68
2022/06/21 14:35:53;;;;;;;3.67;1.92;;;;;;;23.55;38.98;99942.59;2099763;80;33727;-69
2022/06/21 14:39:02;;;;;;;3.02;1.62;;;;;;;23.43;38.73;99940.20;2166869;80;29313;-66
2022/06/21 14:42:17;;;;;;;2.60;1.32;;;;;;;23.27;38.62;99943.74;2167634;80;27754;-68
2022/06/21 14:45:42;;;;;;;3.47;1.35;;;;;;;23.13;38.97;99941.14;2167603;81;29506;-68
2022/06/21 14:49:16;;;;;;;2.35;1.40;;;;;;;22.98;39.12;99938.71;2159156;81;31066;-65
2022/06/21 14:52:45;;;;;;;2.20;1.10;;;;;;;22.82;39.25;99933.55;2034335;84;33004;-68
2022/06/21 14:56:17;;;;;;;1.70;1.25;;;;;;;22.67;39.41;99936.03;2011762;87;29449;-66
2022/06/21 14:59:50;;;;;;;3.10;1.50;;;;;;;22.61;39.72;99944.38;2014333;87;28198;-67
2022/06/21 15:03:06;;;;;;;4.33;1.52;;;;;;;22.62;39.63;99939.75;2006361;87;29518;-67
2022/06/21 15:06:19;;;;;;;2.37;1.70;;;;;;;22.62;39.53;99931.56;2007393;87;31040;-67
2022/06/21 15:09:27;;;;;;;4.15;1.62;;;;;;;22.54;39.35;99927.45;2010000;87;32976;-68
2022/06/21 15:12:33;;;;;;;3.05;1.35;;;;;;;22.46;39.35;99932.36;2006581;87;30145;-67
2022/06/21 15:15:38;;;;;;;6.53;1.27;;;;;;;22.43;39.54;99929.42;2018896;87;27825;-68
2022/06/21 15:18:54;;;;;;;3.15;1.52;;;;;;;22.47;39.79;99928.61;2010692;87;29480;-68
2022/06/21 15:21:59;;;;;;;1.42;1.32;;;;;;;22.54;40.07;99917.37;2019342;83;31047;-68
2022/06/21 15:25:27;;;;;;;3.12;1.45;;;;;;;22.57;39.81;99919.77;2066842;86;33748;-70
2022/06/21 15:28:46;;;;;;;1.72;1.10;;;;;;;22.64;39.62;99925.43;2126070;83;29315;-67
2022/06/21 15:32:01;;;;;;;1.52;1.22;;;;;;;22.74;39.75;99921.20;2067306;86;27986;-66
2022/06/21 15:35:04;;;;;;;1.30;1.00;;;;;;;22.80;39.57;99917.83;2126087;83;28702;-66
2022/06/21 15:38:08;;;;;;;1.52;1.00;;;;;;;22.85;39.53;99922.26;2053704;86;32053;-68
2022/06/21 15:41:15;;;;;;;2.15;1.30;;;;;;;22.85;39.75;99921.42;2034222;87;33017;-67
2022/06/21 15:44:25;;;;;;;2.37;1.07;;;;;;;22.81;39.76;99916.81;2031791;87;29324;-68
2022/06/21 15:51:05;;;;;;;6.90;1.30;;;;;;;22.67;38.72;99916.08;2036295;84;29594;-66
2022/06/21 15:54:16;;;;;;;5.03;1.45;;;;;;;22.57;39.16;99915.68;2050326;86;31068;-68
2022/06/21 15:57:24;;;;;;;3.12;1.10;;;;;;;22.51;39.20;99916.84;2111847;84;32991;-67